McLean, VA (22103)

5:36 AM EDT on March 30, 2015 (GMT -0400)
Great Falls - White Chimney Lane | | Change Station
CLOSE
Current Station
Personal Weather Station
Location: Great Falls, VA
Elevation: 207 ft
Nearby Weather Stations

Elev 207 ft 38.97 °N, 77.26 °W | Updated 9 minutes ago

Overcast
Overcast
41.0 °F
Feels Like 41 °F
N
0.0
Wind Variable Wind from SSW

Today
High -- | Low -- °F
--% Chance of Precip.
Yesterday
High -- | Low -- °F
Precip. -- in
6:57 AM 7:30 PM
Waxing Gibbous, 78% visible
Pressure 30.00 in
Visibility 8.0 miles
Clouds Mostly Cloudy 5000 ft
Overcast 6000 ft
Windchill 41 °F
Dew Point 23 °F
Humidity 48%
Rainfall 0.00 in
Snow Depth Not available.
UV 0 out of 12
Pollen 8.50 out of 12
Air Quality Not available.
Flu Activity Not available.
METAR KDCA 300852Z 17012KT 8SM -RASN BKN050 OVC060 06/M03 A3000 RMK AO2 RAB16SNB12PLB12E45 PRESFR SLP157 P0001 60001 T00611028 57027 $

More Conditions Fewer Conditions

Pressure 30.00 in
Visibility 8.0 miles
Clouds Mostly Cloudy 5000 ft
Overcast 6000 ft
Windchill 41 °F
Dew Point 23 °F
Humidity 48%
Rainfall 0.00 in
Snow Depth Not available.
UV 0 out of 12
Pollen 8.50 out of 12
Air Quality Not available.
Flu Activity Not available.
METAR KDCA 300852Z 17012KT 8SM -RASN BKN050 OVC060 06/M03 A3000 RMK AO2 RAB16SNB12PLB12E45 PRESFR SLP157 P0001 60001 T00611028 57027 $

More Conditions Fewer Conditions

10-Day Weather Forecast

Almanac

Astronomy

Mar. 30, 2015 Rise Set
Actual Time
Civil Twilight
Nautical Twilight
Astronomical Twilight
Moon
Length of Visible Light
Length of Day
Tomorrow will be .
, % of the Moon is Illuminated

Today's Extremes

State Highs State Lows

Community

WunderPhotos

Upload Photos

1,809,451 photos uploaded!

WunderBlogs® & News

Nearby

Air Quality

  Air Quality AQ Index Pollutant
Not available.

Snow Depth

Station Depth Elevation

Earthquake Activity

City Distance Mag. Time & Date
Minimum magnitude displayed is 2.5.

Coastal Water Temperatures

Place Temperature

Stations

Nearby Weather Stations

Station Location Temp. Windchill Dew Point Humidity Wind Precip. Elev Updated Type